LYSO weather

CLOSED Sombor Airport
Sombor, West Bačka, Serbia

Public forecast

Using degrees Celsius for public forecast. Weather courtesy of forecast.io.

Closest aviation weather report (METAR) to Sombor Airport

Closest report is Osijek Airport, 18.7 nm (34.7 km) SW. Retrieved 2020/07/13 08:30 UTC (2 minutes ago):

LDOS 130830Z VRB05KT 9999 FEW037 20/10 Q1022

Closest aviation forecast (TAF) to Sombor Airport

Closest forecast is Osijek Airport, 18.7 nm (34.7 km) SW. Retrieved 2020/07/13 06:27 UTC (2 hours ago):

TAF LDOS 130525Z 1306/1406 01006KT CAVOK TX24/1313Z TN10/1403Z